Terminal Aerodrome Forecast
Issued by NWS Shreveport, LA

Home | Current Version | Previous Version | Text Only | Print | Product List | Glossary On
Versions: 1 2 3 4 5 6 7 8 9 10 11 12 13 14
000
FTUS44 KSHV 012300 RRA
TAFGGG
TAF
KGGG 012342Z 0200/0224 02003KT P6SM BKN015 OVC030
     FM020800 01003KT 6SM BR BKN008 OVC015
     FM021000 01003KT 5SM BR OVC008
     FM021600 03006KT P6SM OVC015
     FM022000 04008KT P6SM BKN025=

USA.gov is the U.S. government's official web portal to all federal, state and local government web resources and services.